sensor_id;sensor_type;location;lat;lon;timestamp;P1;durP1;ratioP1;P2;durP2;ratioP2
3543;SDS011;1786;52.870;9.578;2022-09-12T00:01:18;1.00;;;1.00;;
3543;SDS011;1786;52.870;9.578;2022-09-12T00:03:49;1.40;;;1.40;;
3543;SDS011;1786;52.870;9.578;2022-09-12T00:06:23;3.80;;;1.20;;
3543;SDS011;1786;52.870;9.578;2022-09-12T00:08:56;1.30;;;1.30;;
3543;SDS011;1786;52.870;9.578;2022-09-12T00:11:24;2.00;;;1.20;;
3543;SDS011;1786;52.870;9.578;2022-09-12T00:13:54;1.30;;;1.30;;
3543;SDS011;1786;52.870;9.578;2022-09-12T00:16:23;1.40;;;1.40;;
3543;SDS011;1786;52.870;9.578;2022-09-12T00:18:51;1.70;;;1.60;;
3543;SDS011;1786;52.870;9.578;2022-09-12T00:21:19;3.63;;;1.47;;
3543;SDS011;1786;52.870;9.578;2022-09-12T00:23:47;1.30;;;1.30;;
3543;SDS011;1786;52.870;9.578;2022-09-12T00:26:14;2.50;;;1.47;;
3543;SDS011;1786;52.870;9.578;2022-09-12T00:28:43;2.20;;;2.00;;
3543;SDS011;1786;52.870;9.578;2022-09-12T00:31:12;2.37;;;1.60;;
3543;SDS011;1786;52.870;9.578;2022-09-12T00:33:41;1.60;;;1.60;;
3543;SDS011;1786;52.870;9.578;2022-09-12T00:36:09;1.70;;;1.60;;
3543;SDS011;1786;52.870;9.578;2022-09-12T00:38:37;2.60;;;1.70;;
3543;SDS011;1786;52.870;9.578;2022-09-12T00:41:09;1.87;;;1.87;;
3543;SDS011;1786;52.870;9.578;2022-09-12T00:43:49;2.30;;;1.80;;
3543;SDS011;1786;52.870;9.578;2022-09-12T00:46:24;1.83;;;1.70;;
3543;SDS011;1786;52.870;9.578;2022-09-12T00:49:04;3.67;;;1.97;;
3543;SDS011;1786;52.870;9.578;2022-09-12T00:51:45;2.17;;;2.00;;
3543;SDS011;1786;52.870;9.578;2022-09-12T00:54:18;1.40;;;1.40;;
3543;SDS011;1786;52.870;9.578;2022-09-12T00:56:49;2.07;;;1.90;;
3543;SDS011;1786;52.870;9.578;2022-09-12T00:59:21;1.90;;;1.80;;
3543;SDS011;1786;52.870;9.578;2022-09-12T01:01:52;2.20;;;2.10;;
3543;SDS011;1786;52.870;9.578;2022-09-12T01:04:21;1.70;;;1.57;;
3543;SDS011;1786;52.870;9.578;2022-09-12T01:06:49;2.70;;;1.60;;
3543;SDS011;1786;52.870;9.578;2022-09-12T01:09:19;1.63;;;1.63;;
3543;SDS011;1786;52.870;9.578;2022-09-12T01:11:48;1.93;;;1.53;;
3543;SDS011;1786;52.870;9.578;2022-09-12T01:14:17;1.80;;;1.70;;
3543;SDS011;1786;52.870;9.578;2022-09-12T01:16:44;2.43;;;2.33;;
3543;SDS011;1786;52.870;9.578;2022-09-12T01:22:08;2.40;;;1.70;;
3543;SDS011;1786;52.870;9.578;2022-09-12T01:27:35;3.63;;;2.33;;
3543;SDS011;1786;52.870;9.578;2022-09-12T01:38:59;2.03;;;1.93;;
3543;SDS011;1786;52.870;9.578;2022-09-12T01:41:40;1.80;;;1.70;;
3543;SDS011;1786;52.870;9.578;2022-09-12T01:44:20;1.93;;;1.73;;
3543;SDS011;1786;52.870;9.578;2022-09-12T01:52:30;2.80;;;1.73;;
3543;SDS011;1786;52.870;9.578;2022-09-12T01:55:17;5.50;;;1.90;;
3543;SDS011;1786;52.870;9.578;2022-09-12T02:00:22;1.70;;;1.70;;
3543;SDS011;1786;52.870;9.578;2022-09-12T02:02:51;1.70;;;1.60;;
3543;SDS011;1786;52.870;9.578;2022-09-12T02:05:27;1.90;;;1.80;;
3543;SDS011;1786;52.870;9.578;2022-09-12T02:08:02;1.80;;;1.70;;
3543;SDS011;1786;52.870;9.578;2022-09-12T02:10:35;1.30;;;1.30;;
3543;SDS011;1786;52.870;9.578;2022-09-12T02:13:10;1.30;;;1.30;;
3543;SDS011;1786;52.870;9.578;2022-09-12T02:15:42;1.93;;;1.83;;
3543;SDS011;1786;52.870;9.578;2022-09-12T02:18:16;5.23;;;2.10;;
3543;SDS011;1786;52.870;9.578;2022-09-12T02:20:44;4.70;;;1.50;;
3543;SDS011;1786;52.870;9.578;2022-09-12T02:23:21;2.07;;;1.50;;
3543;SDS011;1786;52.870;9.578;2022-09-12T02:25:53;1.90;;;1.73;;
3543;SDS011;1786;52.870;9.578;2022-09-12T02:28:24;1.73;;;1.67;;
3543;SDS011;1786;52.870;9.578;2022-09-12T02:30:58;1.70;;;1.70;;
3543;SDS011;1786;52.870;9.578;2022-09-12T02:36:14;1.97;;;1.87;;
3543;SDS011;1786;52.870;9.578;2022-09-12T02:38:52;1.40;;;1.40;;
3543;SDS011;1786;52.870;9.578;2022-09-12T02:41:21;1.50;;;1.50;;
3543;SDS011;1786;52.870;9.578;2022-09-12T02:43:48;1.60;;;1.60;;
3543;SDS011;1786;52.870;9.578;2022-09-12T02:46:25;2.27;;;2.17;;
3543;SDS011;1786;52.870;9.578;2022-09-12T02:48:57;1.67;;;1.63;;
3543;SDS011;1786;52.870;9.578;2022-09-12T02:51:24;1.37;;;1.37;;
3543;SDS011;1786;52.870;9.578;2022-09-12T02:53:52;2.37;;;1.73;;
3543;SDS011;1786;52.870;9.578;2022-09-12T02:56:21;2.00;;;1.77;;
3543;SDS011;1786;52.870;9.578;2022-09-12T02:58:52;5.53;;;1.63;;
3543;SDS011;1786;52.870;9.578;2022-09-12T03:07:15;1.80;;;1.70;;
3543;SDS011;1786;52.870;9.578;2022-09-12T03:10:02;1.30;;;1.30;;
3543;SDS011;1786;52.870;9.578;2022-09-12T03:12:44;3.67;;;1.63;;
3543;SDS011;1786;52.870;9.578;2022-09-12T03:18:17;1.23;;;1.13;;
3543;SDS011;1786;52.870;9.578;2022-09-12T03:24:00;1.70;;;1.60;;
3543;SDS011;1786;52.870;9.578;2022-09-12T03:26:55;7.77;;;1.40;;
3543;SDS011;1786;52.870;9.578;2022-09-12T03:29:30;1.60;;;1.50;;
3543;SDS011;1786;52.870;9.578;2022-09-12T03:31:58;1.60;;;1.50;;
3543;SDS011;1786;52.870;9.578;2022-09-12T03:34:25;1.20;;;1.20;;
3543;SDS011;1786;52.870;9.578;2022-09-12T03:36:53;1.60;;;1.60;;
3543;SDS011;1786;52.870;9.578;2022-09-12T03:39:21;4.97;;;2.00;;
3543;SDS011;1786;52.870;9.578;2022-09-12T03:41:49;1.63;;;1.53;;
3543;SDS011;1786;52.870;9.578;2022-09-12T03:44:16;1.60;;;1.50;;
3543;SDS011;1786;52.870;9.578;2022-09-12T03:46:43;3.63;;;1.70;;
3543;SDS011;1786;52.870;9.578;2022-09-12T03:49:10;3.20;;;2.20;;
3543;SDS011;1786;52.870;9.578;2022-09-12T03:51:38;3.90;;;1.90;;
3543;SDS011;1786;52.870;9.578;2022-09-12T03:54:05;1.53;;;1.40;;
3543;SDS011;1786;52.870;9.578;2022-09-12T03:56:32;1.60;;;1.57;;
3543;SDS011;1786;52.870;9.578;2022-09-12T03:58:58;1.40;;;1.30;;
3543;SDS011;1786;52.870;9.578;2022-09-12T04:01:25;2.10;;;1.70;;
3543;SDS011;1786;52.870;9.578;2022-09-12T04:03:51;2.10;;;1.87;;
3543;SDS011;1786;52.870;9.578;2022-09-12T04:06:19;4.97;;;1.60;;
3543;SDS011;1786;52.870;9.578;2022-09-12T04:08:47;1.83;;;1.83;;
3543;SDS011;1786;52.870;9.578;2022-09-12T04:11:16;1.97;;;1.97;;
3543;SDS011;1786;52.870;9.578;2022-09-12T04:13:44;2.43;;;2.23;;
3543;SDS011;1786;52.870;9.578;2022-09-12T04:16:12;3.83;;;1.50;;
3543;SDS011;1786;52.870;9.578;2022-09-12T04:18:40;2.40;;;2.00;;
3543;SDS011;1786;52.870;9.578;2022-09-12T04:21:08;1.73;;;1.73;;
3543;SDS011;1786;52.870;9.578;2022-09-12T04:23:36;6.63;;;2.10;;
3543;SDS011;1786;52.870;9.578;2022-09-12T04:26:03;3.00;;;1.80;;
3543;SDS011;1786;52.870;9.578;2022-09-12T04:28:34;2.50;;;2.30;;
3543;SDS011;1786;52.870;9.578;2022-09-12T04:31:03;2.03;;;1.90;;
3543;SDS011;1786;52.870;9.578;2022-09-12T04:33:35;2.97;;;1.70;;
3543;SDS011;1786;52.870;9.578;2022-09-12T04:36:03;1.83;;;1.73;;
3543;SDS011;1786;52.870;9.578;2022-09-12T04:38:48;3.43;;;1.70;;
3543;SDS011;1786;52.870;9.578;2022-09-12T04:41:17;2.00;;;1.90;;
3543;SDS011;1786;52.870;9.578;2022-09-12T04:43:53;1.63;;;1.53;;
3543;SDS011;1786;52.870;9.578;2022-09-12T04:46:23;3.60;;;1.90;;
3543;SDS011;1786;52.870;9.578;2022-09-12T04:48:51;1.73;;;1.73;;
3543;SDS011;1786;52.870;9.578;2022-09-12T04:51:26;1.63;;;1.60;;
3543;SDS011;1786;52.870;9.578;2022-09-12T04:53:55;1.93;;;1.87;;
3543;SDS011;1786;52.870;9.578;2022-09-12T04:56:26;1.50;;;1.50;;
3543;SDS011;1786;52.870;9.578;2022-09-12T04:58:57;3.60;;;2.20;;
3543;SDS011;1786;52.870;9.578;2022-09-12T05:01:26;3.67;;;2.77;;
3543;SDS011;1786;52.870;9.578;2022-09-12T05:03:54;9.07;;;2.17;;
3543;SDS011;1786;52.870;9.578;2022-09-12T05:06:23;3.73;;;2.20;;
3543;SDS011;1786;52.870;9.578;2022-09-12T05:08:51;5.27;;;2.30;;
3543;SDS011;1786;52.870;9.578;2022-09-12T05:11:20;3.47;;;2.60;;
3543;SDS011;1786;52.870;9.578;2022-09-12T05:13:53;2.67;;;2.47;;
3543;SDS011;1786;52.870;9.578;2022-09-12T05:16:20;4.70;;;2.87;;
3543;SDS011;1786;52.870;9.578;2022-09-12T05:18:48;2.47;;;2.27;;
3543;SDS011;1786;52.870;9.578;2022-09-12T05:21:16;2.67;;;2.57;;
3543;SDS011;1786;52.870;9.578;2022-09-12T05:23:55;8.17;;;3.40;;
3543;SDS011;1786;52.870;9.578;2022-09-12T05:26:25;3.43;;;3.00;;
3543;SDS011;1786;52.870;9.578;2022-09-12T05:28:52;3.63;;;3.20;;
3543;SDS011;1786;52.870;9.578;2022-09-12T05:31:25;3.13;;;2.93;;
3543;SDS011;1786;52.870;9.578;2022-09-12T05:33:54;6.07;;;3.20;;
3543;SDS011;1786;52.870;9.578;2022-09-12T05:36:22;7.37;;;2.73;;
3543;SDS011;1786;52.870;9.578;2022-09-12T05:38:49;3.90;;;2.67;;
3543;SDS011;1786;52.870;9.578;2022-09-12T05:41:16;4.30;;;2.70;;
3543;SDS011;1786;52.870;9.578;2022-09-12T05:43:51;3.37;;;2.67;;
3543;SDS011;1786;52.870;9.578;2022-09-12T05:46:19;2.77;;;2.57;;
3543;SDS011;1786;52.870;9.578;2022-09-12T05:48:47;3.33;;;3.07;;
3543;SDS011;1786;52.870;9.578;2022-09-12T05:51:22;3.83;;;3.13;;
3543;SDS011;1786;52.870;9.578;2022-09-12T05:53:53;2.80;;;2.60;;
3543;SDS011;1786;52.870;9.578;2022-09-12T05:56:22;2.33;;;2.23;;
3543;SDS011;1786;52.870;9.578;2022-09-12T05:58:57;5.37;;;2.40;;
3543;SDS011;1786;52.870;9.578;2022-09-12T06:01:27;4.20;;;2.27;;
3543;SDS011;1786;52.870;9.578;2022-09-12T06:03:56;2.70;;;2.00;;
3543;SDS011;1786;52.870;9.578;2022-09-12T06:06:26;6.63;;;2.20;;
3543;SDS011;1786;52.870;9.578;2022-09-12T06:08:56;2.40;;;2.30;;
3543;SDS011;1786;52.870;9.578;2022-09-12T06:11:26;2.20;;;2.10;;
3543;SDS011;1786;52.870;9.578;2022-09-12T06:13:55;3.77;;;2.30;;
3543;SDS011;1786;52.870;9.578;2022-09-12T06:16:24;4.17;;;2.43;;
3543;SDS011;1786;52.870;9.578;2022-09-12T06:18:56;3.27;;;2.27;;
3543;SDS011;1786;52.870;9.578;2022-09-12T06:21:24;2.80;;;2.40;;
3543;SDS011;1786;52.870;9.578;2022-09-12T06:23:53;2.70;;;2.60;;
3543;SDS011;1786;52.870;9.578;2022-09-12T06:26:20;3.30;;;2.80;;
3543;SDS011;1786;52.870;9.578;2022-09-12T06:28:49;4.40;;;3.03;;
3543;SDS011;1786;52.870;9.578;2022-09-12T06:31:16;3.67;;;3.50;;
3543;SDS011;1786;52.870;9.578;2022-09-12T06:33:45;3.77;;;3.47;;
3543;SDS011;1786;52.870;9.578;2022-09-12T06:36:24;3.63;;;3.42;;
3543;SDS011;1786;52.870;9.578;2022-09-12T06:39:03;3.45;;;3.20;;
3543;SDS011;1786;52.870;9.578;2022-09-12T06:41:35;4.38;;;4.07;;
3543;SDS011;1786;52.870;9.578;2022-09-12T06:44:12;5.07;;;4.70;;
3543;SDS011;1786;52.870;9.578;2022-09-12T06:46:41;4.80;;;4.40;;
3543;SDS011;1786;52.870;9.578;2022-09-12T06:49:08;5.53;;;5.13;;
3543;SDS011;1786;52.870;9.578;2022-09-12T06:51:35;8.10;;;5.00;;
3543;SDS011;1786;52.870;9.578;2022-09-12T06:54:02;4.85;;;4.47;;
3543;SDS011;1786;52.870;9.578;2022-09-12T06:56:30;5.70;;;5.40;;
3543;SDS011;1786;52.870;9.578;2022-09-12T06:58:57;6.80;;;6.32;;
3543;SDS011;1786;52.870;9.578;2022-09-12T07:01:29;7.70;;;7.00;;
3543;SDS011;1786;52.870;9.578;2022-09-12T07:03:57;7.88;;;7.05;;
3543;SDS011;1786;52.870;9.578;2022-09-12T07:06:26;7.50;;;6.75;;
3543;SDS011;1786;52.870;9.578;2022-09-12T07:08:58;9.57;;;7.05;;
3543;SDS011;1786;52.870;9.578;2022-09-12T07:11:28;9.63;;;8.70;;
3543;SDS011;1786;52.870;9.578;2022-09-12T07:13:57;9.60;;;6.60;;
3543;SDS011;1786;52.870;9.578;2022-09-12T07:16:25;8.90;;;8.10;;
3543;SDS011;1786;52.870;9.578;2022-09-12T07:18:52;9.45;;;8.48;;
3543;SDS011;1786;52.870;9.578;2022-09-12T07:21:20;7.57;;;6.97;;
3543;SDS011;1786;52.870;9.578;2022-09-12T07:23:48;7.60;;;7.00;;
3543;SDS011;1786;52.870;9.578;2022-09-12T07:26:17;7.25;;;6.63;;
3543;SDS011;1786;52.870;9.578;2022-09-12T07:28:44;8.25;;;7.55;;
3543;SDS011;1786;52.870;9.578;2022-09-12T07:31:17;10.32;;;8.60;;
3543;SDS011;1786;52.870;9.578;2022-09-12T07:33:44;8.85;;;8.18;;
3543;SDS011;1786;52.870;9.578;2022-09-12T07:36:13;10.68;;;8.88;;
3543;SDS011;1786;52.870;9.578;2022-09-12T07:38:41;10.07;;;9.18;;
3543;SDS011;1786;52.870;9.578;2022-09-12T07:41:10;9.20;;;8.40;;
3543;SDS011;1786;52.870;9.578;2022-09-12T07:43:46;10.63;;;9.60;;
3543;SDS011;1786;52.870;9.578;2022-09-12T07:46:13;10.15;;;9.27;;
3543;SDS011;1786;52.870;9.578;2022-09-12T07:48:40;11.30;;;8.25;;
3543;SDS011;1786;52.870;9.578;2022-09-12T07:51:08;9.57;;;8.32;;
3543;SDS011;1786;52.870;9.578;2022-09-12T07:53:37;10.95;;;9.00;;
3543;SDS011;1786;52.870;9.578;2022-09-12T07:56:07;10.48;;;9.38;;
3543;SDS011;1786;52.870;9.578;2022-09-12T07:58:35;11.77;;;9.13;;
3543;SDS011;1786;52.870;9.578;2022-09-12T08:03:39;11.88;;;10.10;;
3543;SDS011;1786;52.870;9.578;2022-09-12T08:06:10;11.25;;;10.27;;
3543;SDS011;1786;52.870;9.578;2022-09-12T08:08:43;12.85;;;11.65;;
3543;SDS011;1786;52.870;9.578;2022-09-12T08:11:10;11.25;;;10.15;;
3543;SDS011;1786;52.870;9.578;2022-09-12T08:13:38;15.77;;;11.73;;
3543;SDS011;1786;52.870;9.578;2022-09-12T08:16:13;12.05;;;10.85;;
3543;SDS011;1786;52.870;9.578;2022-09-12T08:18:42;11.13;;;10.13;;
3543;SDS011;1786;52.870;9.578;2022-09-12T08:21:13;11.57;;;10.55;;
3543;SDS011;1786;52.870;9.578;2022-09-12T08:23:45;14.20;;;10.18;;
3543;SDS011;1786;52.870;9.578;2022-09-12T08:26:12;12.50;;;11.20;;
3543;SDS011;1786;52.870;9.578;2022-09-12T08:28:39;12.40;;;11.10;;
3543;SDS011;1786;52.870;9.578;2022-09-12T08:31:11;12.30;;;10.68;;
3543;SDS011;1786;52.870;9.578;2022-09-12T08:33:39;12.68;;;11.45;;
3543;SDS011;1786;52.870;9.578;2022-09-12T08:36:10;11.32;;;10.13;;
3543;SDS011;1786;52.870;9.578;2022-09-12T08:38:43;12.52;;;11.07;;
3543;SDS011;1786;52.870;9.578;2022-09-12T08:46:54;10.88;;;9.77;;
3543;SDS011;1786;52.870;9.578;2022-09-12T08:52:09;13.15;;;10.35;;
3543;SDS011;1786;52.870;9.578;2022-09-12T08:54:38;14.18;;;10.70;;
3543;SDS011;1786;52.870;9.578;2022-09-12T08:57:07;12.93;;;10.50;;
3543;SDS011;1786;52.870;9.578;2022-09-12T08:59:37;10.95;;;9.88;;
3543;SDS011;1786;52.870;9.578;2022-09-12T09:02:16;11.38;;;10.25;;
3543;SDS011;1786;52.870;9.578;2022-09-12T09:05:18;10.65;;;9.55;;
3543;SDS011;1786;52.870;9.578;2022-09-12T09:13:33;11.63;;;9.73;;
3543;SDS011;1786;52.870;9.578;2022-09-12T09:16:32;15.20;;;10.33;;
3543;SDS011;1786;52.870;9.578;2022-09-12T09:19:11;11.00;;;10.00;;
3543;SDS011;1786;52.870;9.578;2022-09-12T09:21:57;12.23;;;10.33;;
3543;SDS011;1786;52.870;9.578;2022-09-12T09:24:27;11.03;;;9.60;;
3543;SDS011;1786;52.870;9.578;2022-09-12T09:27:03;12.93;;;10.33;;
3543;SDS011;1786;52.870;9.578;2022-09-12T09:30:12;17.63;;;12.00;;
3543;SDS011;1786;52.870;9.578;2022-09-12T09:32:41;15.37;;;11.83;;
3543;SDS011;1786;52.870;9.578;2022-09-12T09:35:17;12.67;;;10.70;;
3543;SDS011;1786;52.870;9.578;2022-09-12T09:41:00;12.73;;;11.00;;
3543;SDS011;1786;52.870;9.578;2022-09-12T09:43:49;15.70;;;11.20;;
3543;SDS011;1786;52.870;9.578;2022-09-12T09:46:16;12.07;;;9.73;;
3543;SDS011;1786;52.870;9.578;2022-09-12T09:48:44;13.17;;;10.60;;
3543;SDS011;1786;52.870;9.578;2022-09-12T09:51:15;12.50;;;9.40;;
3543;SDS011;1786;52.870;9.578;2022-09-12T09:53:53;13.40;;;10.20;;
3543;SDS011;1786;52.870;9.578;2022-09-12T09:58:54;14.10;;;9.17;;
3543;SDS011;1786;52.870;9.578;2022-09-12T10:01:21;10.10;;;9.00;;
3543;SDS011;1786;52.870;9.578;2022-09-12T10:03:51;13.27;;;8.60;;
3543;SDS011;1786;52.870;9.578;2022-09-12T10:08:46;10.90;;;9.30;;
3543;SDS011;1786;52.870;9.578;2022-09-12T10:16:23;8.83;;;7.43;;
3543;SDS011;1786;52.870;9.578;2022-09-12T10:19:00;10.00;;;7.40;;
3543;SDS011;1786;52.870;9.578;2022-09-12T10:21:29;9.47;;;8.10;;
3543;SDS011;1786;52.870;9.578;2022-09-12T10:24:09;10.90;;;8.87;;
3543;SDS011;1786;52.870;9.578;2022-09-12T10:26:48;10.80;;;8.33;;
3543;SDS011;1786;52.870;9.578;2022-09-12T10:29:24;9.60;;;8.70;;
3543;SDS011;1786;52.870;9.578;2022-09-12T10:31:58;9.13;;;7.93;;
3543;SDS011;1786;52.870;9.578;2022-09-12T10:34:29;8.33;;;6.93;;
3543;SDS011;1786;52.870;9.578;2022-09-12T10:37:05;8.93;;;7.53;;
3543;SDS011;1786;52.870;9.578;2022-09-12T10:39:34;7.83;;;7.03;;
3543;SDS011;1786;52.870;9.578;2022-09-12T10:42:03;9.37;;;8.10;;
3543;SDS011;1786;52.870;9.578;2022-09-12T10:44:31;13.50;;;7.27;;
3543;SDS011;1786;52.870;9.578;2022-09-12T10:47:17;10.10;;;7.80;;
3543;SDS011;1786;52.870;9.578;2022-09-12T10:49:46;13.60;;;10.50;;
3543;SDS011;1786;52.870;9.578;2022-09-12T10:52:20;10.47;;;9.07;;
3543;SDS011;1786;52.870;9.578;2022-09-12T10:54:49;9.70;;;8.80;;
3543;SDS011;1786;52.870;9.578;2022-09-12T11:03:05;13.23;;;8.40;;
3543;SDS011;1786;52.870;9.578;2022-09-12T11:08:26;8.40;;;7.20;;
3543;SDS011;1786;52.870;9.578;2022-09-12T11:11:11;17.60;;;7.03;;
3543;SDS011;1786;52.870;9.578;2022-09-12T11:16:48;8.90;;;6.50;;
3543;SDS011;1786;52.870;9.578;2022-09-12T11:19:23;6.40;;;5.80;;
3543;SDS011;1786;52.870;9.578;2022-09-12T11:25:06;7.23;;;6.00;;
3543;SDS011;1786;52.870;9.578;2022-09-12T11:33:42;4.70;;;4.40;;
3543;SDS011;1786;52.870;9.578;2022-09-12T11:36:16;8.00;;;5.50;;
3543;SDS011;1786;52.870;9.578;2022-09-12T11:38:55;5.10;;;4.60;;
3543;SDS011;1786;52.870;9.578;2022-09-12T11:41:35;7.50;;;4.30;;
3543;SDS011;1786;52.870;9.578;2022-09-12T11:44:16;5.63;;;5.10;;
3543;SDS011;1786;52.870;9.578;2022-09-12T11:46:47;4.57;;;4.13;;
3543;SDS011;1786;52.870;9.578;2022-09-12T11:49:23;8.90;;;4.40;;
3543;SDS011;1786;52.870;9.578;2022-09-12T11:52:12;9.63;;;4.70;;
3543;SDS011;1786;52.870;9.578;2022-09-12T11:54:43;4.20;;;3.40;;
3543;SDS011;1786;52.870;9.578;2022-09-12T11:57:44;5.50;;;5.00;;
3543;SDS011;1786;52.870;9.578;2022-09-12T12:08:08;9.47;;;5.30;;
3543;SDS011;1786;52.870;9.578;2022-09-12T12:10:40;6.53;;;5.10;;
3543;SDS011;1786;52.870;9.578;2022-09-12T12:13:18;4.83;;;4.40;;
3543;SDS011;1786;52.870;9.578;2022-09-12T12:15:55;5.17;;;4.67;;
3543;SDS011;1786;52.870;9.578;2022-09-12T12:18:26;6.33;;;5.73;;
3543;SDS011;1786;52.870;9.578;2022-09-12T12:20:55;7.23;;;4.00;;
3543;SDS011;1786;52.870;9.578;2022-09-12T12:23:41;5.27;;;4.77;;
3543;SDS011;1786;52.870;9.578;2022-09-12T12:29:09;6.40;;;5.90;;
3543;SDS011;1786;52.870;9.578;2022-09-12T12:44:58;4.53;;;4.20;;
3543;SDS011;1786;52.870;9.578;2022-09-12T12:47:26;6.07;;;4.20;;
3543;SDS011;1786;52.870;9.578;2022-09-12T12:52:31;5.20;;;4.80;;
3543;SDS011;1786;52.870;9.578;2022-09-12T12:58:04;6.20;;;4.20;;
3543;SDS011;1786;52.870;9.578;2022-09-12T13:00:33;7.83;;;3.77;;
3543;SDS011;1786;52.870;9.578;2022-09-12T13:05:45;3.47;;;3.37;;
3543;SDS011;1786;52.870;9.578;2022-09-12T13:10:51;3.30;;;3.07;;
3543;SDS011;1786;52.870;9.578;2022-09-12T13:13:23;4.07;;;3.40;;
3543;SDS011;1786;52.870;9.578;2022-09-12T13:15:53;3.00;;;2.90;;
3543;SDS011;1786;52.870;9.578;2022-09-12T13:18:22;2.40;;;2.30;;
3543;SDS011;1786;52.870;9.578;2022-09-12T13:21:12;2.70;;;2.50;;
3543;SDS011;1786;52.870;9.578;2022-09-12T13:23:45;2.30;;;1.90;;
3543;SDS011;1786;52.870;9.578;2022-09-12T13:26:27;3.00;;;2.80;;
3543;SDS011;1786;52.870;9.578;2022-09-12T13:29:09;3.20;;;3.00;;
3543;SDS011;1786;52.870;9.578;2022-09-12T13:34:27;4.13;;;2.80;;
3543;SDS011;1786;52.870;9.578;2022-09-12T13:42:46;2.67;;;2.47;;
3543;SDS011;1786;52.870;9.578;2022-09-12T13:45:18;3.07;;;2.53;;
3543;SDS011;1786;52.870;9.578;2022-09-12T13:48:21;1.70;;;1.70;;
3543;SDS011;1786;52.870;9.578;2022-09-12T13:50:47;2.90;;;2.57;;
3543;SDS011;1786;52.870;9.578;2022-09-12T13:53:18;3.27;;;2.60;;
3543;SDS011;1786;52.870;9.578;2022-09-12T13:55:50;4.47;;;2.10;;
3543;SDS011;1786;52.870;9.578;2022-09-12T14:00:58;3.40;;;3.10;;
3543;SDS011;1786;52.870;9.578;2022-09-12T14:03:32;2.90;;;2.20;;
3543;SDS011;1786;52.870;9.578;2022-09-12T14:06:24;4.33;;;2.63;;
3543;SDS011;1786;52.870;9.578;2022-09-12T14:08:53;3.00;;;2.80;;
3543;SDS011;1786;52.870;9.578;2022-09-12T14:11:26;3.80;;;2.80;;
3543;SDS011;1786;52.870;9.578;2022-09-12T14:13:55;2.90;;;2.70;;
3543;SDS011;1786;52.870;9.578;2022-09-12T14:16:23;4.40;;;2.03;;
3543;SDS011;1786;52.870;9.578;2022-09-12T14:18:52;4.90;;;1.90;;
3543;SDS011;1786;52.870;9.578;2022-09-12T14:21:25;1.57;;;1.57;;
3543;SDS011;1786;52.870;9.578;2022-09-12T14:23:59;3.60;;;1.70;;
3543;SDS011;1786;52.870;9.578;2022-09-12T14:26:28;5.47;;;2.00;;
3543;SDS011;1786;52.870;9.578;2022-09-12T14:28:59;1.73;;;1.60;;
3543;SDS011;1786;52.870;9.578;2022-09-12T14:31:30;1.60;;;1.50;;
3543;SDS011;1786;52.870;9.578;2022-09-12T14:34:15;2.73;;;1.70;;
3543;SDS011;1786;52.870;9.578;2022-09-12T14:36:44;1.60;;;1.30;;
3543;SDS011;1786;52.870;9.578;2022-09-12T14:42:15;1.53;;;1.43;;
3543;SDS011;1786;52.870;9.578;2022-09-12T14:44:56;2.07;;;1.97;;
3543;SDS011;1786;52.870;9.578;2022-09-12T14:47:27;2.40;;;2.00;;
3543;SDS011;1786;52.870;9.578;2022-09-12T14:50:00;2.43;;;1.90;;
3543;SDS011;1786;52.870;9.578;2022-09-12T14:52:33;1.90;;;1.80;;
3543;SDS011;1786;52.870;9.578;2022-09-12T14:55:17;5.67;;;1.80;;
3543;SDS011;1786;52.870;9.578;2022-09-12T14:57:57;1.63;;;1.60;;
3543;SDS011;1786;52.870;9.578;2022-09-12T15:03:33;1.50;;;1.40;;
3543;SDS011;1786;52.870;9.578;2022-09-12T15:06:00;1.30;;;1.30;;
3543;SDS011;1786;52.870;9.578;2022-09-12T15:08:29;1.70;;;1.53;;
3543;SDS011;1786;52.870;9.578;2022-09-12T15:10:57;2.87;;;1.53;;
3543;SDS011;1786;52.870;9.578;2022-09-12T15:13:25;5.20;;;1.93;;
3543;SDS011;1786;52.870;9.578;2022-09-12T15:15:54;1.70;;;1.60;;
3543;SDS011;1786;52.870;9.578;2022-09-12T15:18:26;2.80;;;1.50;;
3543;SDS011;1786;52.870;9.578;2022-09-12T15:20:54;5.50;;;1.63;;
3543;SDS011;1786;52.870;9.578;2022-09-12T15:23:26;4.63;;;1.30;;
3543;SDS011;1786;52.870;9.578;2022-09-12T15:25:53;1.67;;;1.57;;
3543;SDS011;1786;52.870;9.578;2022-09-12T15:28:21;1.33;;;1.23;;
3543;SDS011;1786;52.870;9.578;2022-09-12T15:30:50;2.80;;;1.40;;
3543;SDS011;1786;52.870;9.578;2022-09-12T15:33:18;1.67;;;1.57;;
3543;SDS011;1786;52.870;9.578;2022-09-12T15:35:48;2.50;;;1.57;;
3543;SDS011;1786;52.870;9.578;2022-09-12T15:38:15;1.83;;;1.73;;
3543;SDS011;1786;52.870;9.578;2022-09-12T15:40:42;2.70;;;1.47;;
3543;SDS011;1786;52.870;9.578;2022-09-12T15:43:10;1.40;;;1.30;;
3543;SDS011;1786;52.870;9.578;2022-09-12T15:45:40;2.83;;;1.83;;
3543;SDS011;1786;52.870;9.578;2022-09-12T15:48:08;1.60;;;1.50;;
3543;SDS011;1786;52.870;9.578;2022-09-12T15:50:35;7.53;;;1.87;;
3543;SDS011;1786;52.870;9.578;2022-09-12T15:53:01;3.07;;;2.00;;
3543;SDS011;1786;52.870;9.578;2022-09-12T15:55:28;2.00;;;1.90;;
3543;SDS011;1786;52.870;9.578;2022-09-12T15:57:57;2.00;;;1.90;;
3543;SDS011;1786;52.870;9.578;2022-09-12T16:00:30;3.00;;;1.93;;
3543;SDS011;1786;52.870;9.578;2022-09-12T16:02:57;4.20;;;1.97;;
3543;SDS011;1786;52.870;9.578;2022-09-12T16:05:24;2.53;;;1.73;;
3543;SDS011;1786;52.870;9.578;2022-09-12T16:07:52;1.90;;;1.80;;
3543;SDS011;1786;52.870;9.578;2022-09-12T16:10:21;2.90;;;1.80;;
3543;SDS011;1786;52.870;9.578;2022-09-12T16:12:49;2.60;;;2.50;;
3543;SDS011;1786;52.870;9.578;2022-09-12T16:15:18;2.13;;;2.07;;
3543;SDS011;1786;52.870;9.578;2022-09-12T16:17:46;4.43;;;1.63;;
3543;SDS011;1786;52.870;9.578;2022-09-12T16:20:13;2.40;;;1.73;;
3543;SDS011;1786;52.870;9.578;2022-09-12T16:22:41;2.60;;;2.20;;
3543;SDS011;1786;52.870;9.578;2022-09-12T16:25:08;2.10;;;2.00;;
3543;SDS011;1786;52.870;9.578;2022-09-12T16:27:35;2.20;;;1.93;;
3543;SDS011;1786;52.870;9.578;2022-09-12T16:30:03;8.13;;;1.80;;
3543;SDS011;1786;52.870;9.578;2022-09-12T16:32:31;1.93;;;1.80;;
3543;SDS011;1786;52.870;9.578;2022-09-12T16:34:58;3.00;;;2.23;;
3543;SDS011;1786;52.870;9.578;2022-09-12T16:37:25;3.23;;;1.80;;
3543;SDS011;1786;52.870;9.578;2022-09-12T16:39:52;2.13;;;1.83;;
3543;SDS011;1786;52.870;9.578;2022-09-12T16:42:19;7.13;;;3.63;;
3543;SDS011;1786;52.870;9.578;2022-09-12T16:44:45;2.70;;;2.50;;
3543;SDS011;1786;52.870;9.578;2022-09-12T16:47:13;1.87;;;1.73;;
3543;SDS011;1786;52.870;9.578;2022-09-12T16:49:39;1.83;;;1.73;;
3543;SDS011;1786;52.870;9.578;2022-09-12T16:52:06;1.73;;;1.50;;
3543;SDS011;1786;52.870;9.578;2022-09-12T16:54:33;1.93;;;1.90;;
3543;SDS011;1786;52.870;9.578;2022-09-12T16:57:00;2.00;;;1.90;;
3543;SDS011;1786;52.870;9.578;2022-09-12T16:59:26;2.00;;;1.93;;
3543;SDS011;1786;52.870;9.578;2022-09-12T17:01:53;1.97;;;1.87;;
3543;SDS011;1786;52.870;9.578;2022-09-12T17:04:20;1.57;;;1.57;;
3543;SDS011;1786;52.870;9.578;2022-09-12T17:06:49;4.43;;;1.50;;
3543;SDS011;1786;52.870;9.578;2022-09-12T17:09:16;2.00;;;1.90;;
3543;SDS011;1786;52.870;9.578;2022-09-12T17:11:45;3.33;;;1.90;;
3543;SDS011;1786;52.870;9.578;2022-09-12T17:14:15;1.93;;;1.83;;
3543;SDS011;1786;52.870;9.578;2022-09-12T17:16:43;2.53;;;2.33;;
3543;SDS011;1786;52.870;9.578;2022-09-12T17:19:21;2.50;;;2.17;;
3543;SDS011;1786;52.870;9.578;2022-09-12T17:21:52;2.20;;;2.10;;
3543;SDS011;1786;52.870;9.578;2022-09-12T17:24:19;2.87;;;2.40;;
3543;SDS011;1786;52.870;9.578;2022-09-12T17:26:46;2.40;;;2.20;;
3543;SDS011;1786;52.870;9.578;2022-09-12T17:29:13;5.07;;;3.07;;
3543;SDS011;1786;52.870;9.578;2022-09-12T17:31:41;5.33;;;3.93;;
3543;SDS011;1786;52.870;9.578;2022-09-12T17:34:09;4.00;;;3.77;;
3543;SDS011;1786;52.870;9.578;2022-09-12T17:36:39;5.50;;;3.93;;
3543;SDS011;1786;52.870;9.578;2022-09-12T17:39:09;6.43;;;3.40;;
3543;SDS011;1786;52.870;9.578;2022-09-12T17:41:36;3.33;;;3.10;;
3543;SDS011;1786;52.870;9.578;2022-09-12T17:44:03;3.13;;;2.83;;
3543;SDS011;1786;52.870;9.578;2022-09-12T17:46:33;14.70;;;4.13;;
3543;SDS011;1786;52.870;9.578;2022-09-12T17:49:03;3.67;;;3.47;;
3543;SDS011;1786;52.870;9.578;2022-09-12T17:51:32;13.17;;;5.70;;
3543;SDS011;1786;52.870;9.578;2022-09-12T17:54:00;6.23;;;3.80;;
3543;SDS011;1786;52.870;9.578;2022-09-12T17:56:37;5.33;;;4.17;;
3543;SDS011;1786;52.870;9.578;2022-09-12T17:59:07;4.40;;;3.60;;